sensor_id;sensor_type;location;lat;lon;timestamp;P1;durP1;ratioP1;P2;durP2;ratioP2
77206;SDS011;66190;50.708;7.906;2024-02-21T00:00:20;11.40;;;3.60;;
77206;SDS011;66190;50.708;7.906;2024-02-21T00:02:46;18.67;;;4.25;;
77206;SDS011;66190;50.708;7.906;2024-02-21T00:05:11;14.87;;;4.03;;
77206;SDS011;66190;50.708;7.906;2024-02-21T00:07:36;14.77;;;4.60;;
77206;SDS011;66190;50.708;7.906;2024-02-21T00:10:02;16.60;;;4.03;;
77206;SDS011;66190;50.708;7.906;2024-02-21T00:12:28;12.93;;;3.78;;
77206;SDS011;66190;50.708;7.906;2024-02-21T00:14:53;12.80;;;4.00;;
77206;SDS011;66190;50.708;7.906;2024-02-21T00:17:19;15.68;;;4.90;;
77206;SDS011;66190;50.708;7.906;2024-02-21T00:19:44;14.90;;;4.45;;
77206;SDS011;66190;50.708;7.906;2024-02-21T00:22:10;15.90;;;4.60;;
77206;SDS011;66190;50.708;7.906;2024-02-21T00:24:35;17.50;;;4.13;;
77206;SDS011;66190;50.708;7.906;2024-02-21T00:27:00;13.83;;;4.00;;
77206;SDS011;66190;50.708;7.906;2024-02-21T00:29:26;11.83;;;3.80;;
77206;SDS011;66190;50.708;7.906;2024-02-21T00:31:52;14.60;;;3.78;;
77206;SDS011;66190;50.708;7.906;2024-02-21T00:34:18;13.37;;;4.73;;
77206;SDS011;66190;50.708;7.906;2024-02-21T00:36:43;15.45;;;4.68;;
77206;SDS011;66190;50.708;7.906;2024-02-21T00:39:08;11.40;;;4.03;;
77206;SDS011;66190;50.708;7.906;2024-02-21T00:41:34;12.23;;;4.00;;
77206;SDS011;66190;50.708;7.906;2024-02-21T00:43:59;14.47;;;4.70;;
77206;SDS011;66190;50.708;7.906;2024-02-21T00:46:24;9.70;;;3.57;;
77206;SDS011;66190;50.708;7.906;2024-02-21T00:48:50;15.93;;;4.50;;
77206;SDS011;66190;50.708;7.906;2024-02-21T00:51:15;14.48;;;4.15;;
77206;SDS011;66190;50.708;7.906;2024-02-21T00:53:41;15.30;;;4.53;;
77206;SDS011;66190;50.708;7.906;2024-02-21T00:56:07;12.85;;;4.05;;
77206;SDS011;66190;50.708;7.906;2024-02-21T00:58:33;14.97;;;4.30;;
77206;SDS011;66190;50.708;7.906;2024-02-21T01:00:58;12.37;;;4.27;;
77206;SDS011;66190;50.708;7.906;2024-02-21T01:03:25;13.68;;;4.00;;
77206;SDS011;66190;50.708;7.906;2024-02-21T01:05:50;14.40;;;4.10;;
77206;SDS011;66190;50.708;7.906;2024-02-21T01:08:16;17.75;;;5.13;;
77206;SDS011;66190;50.708;7.906;2024-02-21T01:10:41;19.27;;;4.13;;
77206;SDS011;66190;50.708;7.906;2024-02-21T01:13:06;12.33;;;4.37;;
77206;SDS011;66190;50.708;7.906;2024-02-21T01:15:32;14.73;;;4.07;;
77206;SDS011;66190;50.708;7.906;2024-02-21T01:17:58;14.70;;;4.40;;
77206;SDS011;66190;50.708;7.906;2024-02-21T01:20:23;13.70;;;4.23;;
77206;SDS011;66190;50.708;7.906;2024-02-21T01:22:49;13.47;;;4.00;;
77206;SDS011;66190;50.708;7.906;2024-02-21T01:25:14;13.73;;;4.15;;
77206;SDS011;66190;50.708;7.906;2024-02-21T01:27:40;16.67;;;4.00;;
77206;SDS011;66190;50.708;7.906;2024-02-21T01:30:05;11.50;;;3.90;;
77206;SDS011;66190;50.708;7.906;2024-02-21T01:32:31;12.65;;;4.70;;
77206;SDS011;66190;50.708;7.906;2024-02-21T01:34:56;12.53;;;4.33;;
77206;SDS011;66190;50.708;7.906;2024-02-21T01:37:22;14.57;;;4.07;;
77206;SDS011;66190;50.708;7.906;2024-02-21T01:39:47;12.77;;;4.10;;
77206;SDS011;66190;50.708;7.906;2024-02-21T01:42:14;16.23;;;4.70;;
77206;SDS011;66190;50.708;7.906;2024-02-21T01:44:39;15.13;;;4.13;;
77206;SDS011;66190;50.708;7.906;2024-02-21T01:47:05;15.10;;;4.53;;
77206;SDS011;66190;50.708;7.906;2024-02-21T01:49:31;11.30;;;3.60;;
77206;SDS011;66190;50.708;7.906;2024-02-21T01:51:56;11.07;;;3.67;;
77206;SDS011;66190;50.708;7.906;2024-02-21T01:54:22;13.50;;;4.23;;
77206;SDS011;66190;50.708;7.906;2024-02-21T01:56:47;14.67;;;4.50;;
77206;SDS011;66190;50.708;7.906;2024-02-21T01:59:13;12.77;;;4.05;;
77206;SDS011;66190;50.708;7.906;2024-02-21T02:01:41;13.70;;;3.92;;
77206;SDS011;66190;50.708;7.906;2024-02-21T02:04:06;13.07;;;4.73;;
77206;SDS011;66190;50.708;7.906;2024-02-21T02:06:33;12.27;;;4.13;;
77206;SDS011;66190;50.708;7.906;2024-02-21T02:08:59;12.55;;;4.38;;
77206;SDS011;66190;50.708;7.906;2024-02-21T02:11:25;13.30;;;3.77;;
77206;SDS011;66190;50.708;7.906;2024-02-21T02:13:50;10.00;;;3.83;;
77206;SDS011;66190;50.708;7.906;2024-02-21T02:16:16;13.07;;;3.87;;
77206;SDS011;66190;50.708;7.906;2024-02-21T02:18:41;17.50;;;3.87;;
77206;SDS011;66190;50.708;7.906;2024-02-21T02:21:09;12.83;;;3.87;;
77206;SDS011;66190;50.708;7.906;2024-02-21T02:23:47;14.00;;;3.58;;
77206;SDS011;66190;50.708;7.906;2024-02-21T02:26:12;9.77;;;3.53;;
77206;SDS011;66190;50.708;7.906;2024-02-21T02:31:22;13.10;;;3.97;;
77206;SDS011;66190;50.708;7.906;2024-02-21T02:33:47;12.13;;;3.30;;
77206;SDS011;66190;50.708;7.906;2024-02-21T02:36:13;13.48;;;3.45;;
77206;SDS011;66190;50.708;7.906;2024-02-21T02:38:38;14.80;;;3.90;;
77206;SDS011;66190;50.708;7.906;2024-02-21T02:41:04;14.53;;;3.70;;
77206;SDS011;66190;50.708;7.906;2024-02-21T02:43:30;12.43;;;3.90;;
77206;SDS011;66190;50.708;7.906;2024-02-21T02:45:56;11.82;;;3.42;;
77206;SDS011;66190;50.708;7.906;2024-02-21T02:48:21;12.83;;;3.57;;
77206;SDS011;66190;50.708;7.906;2024-02-21T02:50:47;14.07;;;3.80;;
77206;SDS011;66190;50.708;7.906;2024-02-21T02:53:14;13.93;;;3.63;;
77206;SDS011;66190;50.708;7.906;2024-02-21T02:55:40;12.97;;;3.50;;
77206;SDS011;66190;50.708;7.906;2024-02-21T02:58:05;14.77;;;4.57;;
77206;SDS011;66190;50.708;7.906;2024-02-21T03:00:30;13.43;;;4.00;;
77206;SDS011;66190;50.708;7.906;2024-02-21T03:02:56;10.98;;;3.83;;
77206;SDS011;66190;50.708;7.906;2024-02-21T03:05:21;11.27;;;3.20;;
77206;SDS011;66190;50.708;7.906;2024-02-21T03:07:47;12.77;;;3.70;;
77206;SDS011;66190;50.708;7.906;2024-02-21T03:10:16;10.45;;;3.75;;
77206;SDS011;66190;50.708;7.906;2024-02-21T03:12:42;12.47;;;3.70;;
77206;SDS011;66190;50.708;7.906;2024-02-21T03:15:07;12.27;;;3.40;;
77206;SDS011;66190;50.708;7.906;2024-02-21T03:17:34;13.93;;;3.97;;
77206;SDS011;66190;50.708;7.906;2024-02-21T03:19:59;11.70;;;3.92;;
77206;SDS011;66190;50.708;7.906;2024-02-21T03:22:25;12.40;;;3.83;;
77206;SDS011;66190;50.708;7.906;2024-02-21T03:24:51;11.90;;;3.10;;
77206;SDS011;66190;50.708;7.906;2024-02-21T03:27:16;11.13;;;3.50;;
77206;SDS011;66190;50.708;7.906;2024-02-21T03:29:42;11.70;;;3.23;;
77206;SDS011;66190;50.708;7.906;2024-02-21T03:32:07;16.55;;;4.28;;
77206;SDS011;66190;50.708;7.906;2024-02-21T03:34:33;11.73;;;3.57;;
77206;SDS011;66190;50.708;7.906;2024-02-21T03:36:58;12.87;;;3.43;;
77206;SDS011;66190;50.708;7.906;2024-02-21T03:39:24;11.38;;;3.13;;
77206;SDS011;66190;50.708;7.906;2024-02-21T03:41:49;9.02;;;2.63;;
77206;SDS011;66190;50.708;7.906;2024-02-21T03:44:15;13.43;;;3.10;;
77206;SDS011;66190;50.708;7.906;2024-02-21T03:46:40;12.97;;;3.40;;
77206;SDS011;66190;50.708;7.906;2024-02-21T03:49:06;11.00;;;3.37;;
77206;SDS011;66190;50.708;7.906;2024-02-21T03:51:32;13.07;;;3.85;;
77206;SDS011;66190;50.708;7.906;2024-02-21T03:53:57;11.05;;;3.80;;
77206;SDS011;66190;50.708;7.906;2024-02-21T03:56:23;9.73;;;3.30;;
77206;SDS011;66190;50.708;7.906;2024-02-21T03:58:48;11.00;;;3.20;;
77206;SDS011;66190;50.708;7.906;2024-02-21T04:01:15;13.33;;;3.57;;
77206;SDS011;66190;50.708;7.906;2024-02-21T04:03:40;15.02;;;4.00;;
77206;SDS011;66190;50.708;7.906;2024-02-21T04:06:06;13.80;;;4.10;;
77206;SDS011;66190;50.708;7.906;2024-02-21T04:08:31;13.30;;;3.77;;
77206;SDS011;66190;50.708;7.906;2024-02-21T04:10:56;18.53;;;5.53;;
77206;SDS011;66190;50.708;7.906;2024-02-21T04:13:22;18.67;;;5.25;;
77206;SDS011;66190;50.708;7.906;2024-02-21T04:15:48;14.25;;;4.05;;
77206;SDS011;66190;50.708;7.906;2024-02-21T04:18:13;10.27;;;3.20;;
77206;SDS011;66190;50.708;7.906;2024-02-21T04:20:40;11.63;;;3.38;;
77206;SDS011;66190;50.708;7.906;2024-02-21T04:23:05;12.35;;;3.67;;
77206;SDS011;66190;50.708;7.906;2024-02-21T04:25:31;21.67;;;7.90;;
77206;SDS011;66190;50.708;7.906;2024-02-21T04:27:56;12.07;;;3.97;;
77206;SDS011;66190;50.708;7.906;2024-02-21T04:30:21;15.13;;;5.77;;
77206;SDS011;66190;50.708;7.906;2024-02-21T04:32:47;10.70;;;3.43;;
77206;SDS011;66190;50.708;7.906;2024-02-21T04:35:12;12.63;;;3.77;;
77206;SDS011;66190;50.708;7.906;2024-02-21T04:37:37;11.67;;;3.97;;
77206;SDS011;66190;50.708;7.906;2024-02-21T04:40:03;14.63;;;3.80;;
77206;SDS011;66190;50.708;7.906;2024-02-21T04:42:29;11.25;;;3.38;;
77206;SDS011;66190;50.708;7.906;2024-02-21T04:44:54;11.97;;;3.50;;
77206;SDS011;66190;50.708;7.906;2024-02-21T04:47:19;13.50;;;3.33;;
77206;SDS011;66190;50.708;7.906;2024-02-21T04:49:45;18.97;;;3.80;;
77206;SDS011;66190;50.708;7.906;2024-02-21T04:52:11;12.52;;;3.53;;
77206;SDS011;66190;50.708;7.906;2024-02-21T04:54:36;13.02;;;4.25;;
77206;SDS011;66190;50.708;7.906;2024-02-21T04:57:02;14.00;;;3.83;;
77206;SDS011;66190;50.708;7.906;2024-02-21T04:59:27;12.80;;;3.57;;
77206;SDS011;66190;50.708;7.906;2024-02-21T05:01:53;15.10;;;4.00;;
77206;SDS011;66190;50.708;7.906;2024-02-21T05:04:18;17.87;;;4.70;;
77206;SDS011;66190;50.708;7.906;2024-02-21T05:06:43;13.25;;;3.15;;
77206;SDS011;66190;50.708;7.906;2024-02-21T05:09:09;11.80;;;2.83;;
77206;SDS011;66190;50.708;7.906;2024-02-21T05:11:35;11.60;;;3.88;;
77206;SDS011;66190;50.708;7.906;2024-02-21T05:14:02;11.30;;;3.17;;
77206;SDS011;66190;50.708;7.906;2024-02-21T05:16:29;13.68;;;3.50;;
77206;SDS011;66190;50.708;7.906;2024-02-21T05:18:54;11.30;;;3.10;;
77206;SDS011;66190;50.708;7.906;2024-02-21T05:21:21;11.68;;;3.58;;
77206;SDS011;66190;50.708;7.906;2024-02-21T05:23:48;15.45;;;4.03;;
77206;SDS011;66190;50.708;7.906;2024-02-21T05:26:19;14.57;;;3.70;;
77206;SDS011;66190;50.708;7.906;2024-02-21T05:28:46;12.23;;;3.00;;
77206;SDS011;66190;50.708;7.906;2024-02-21T05:31:12;10.63;;;3.23;;
77206;SDS011;66190;50.708;7.906;2024-02-21T05:33:38;11.45;;;2.95;;
77206;SDS011;66190;50.708;7.906;2024-02-21T05:36:04;12.80;;;3.37;;
77206;SDS011;66190;50.708;7.906;2024-02-21T05:38:30;11.20;;;3.40;;
77206;SDS011;66190;50.708;7.906;2024-02-21T05:40:55;11.67;;;3.43;;
77206;SDS011;66190;50.708;7.906;2024-02-21T05:43:21;13.35;;;3.65;;
77206;SDS011;66190;50.708;7.906;2024-02-21T05:45:47;10.60;;;3.60;;
77206;SDS011;66190;50.708;7.906;2024-02-21T05:48:13;15.30;;;3.13;;
77206;SDS011;66190;50.708;7.906;2024-02-21T05:50:39;13.40;;;4.27;;
77206;SDS011;66190;50.708;7.906;2024-02-21T05:53:04;12.53;;;3.90;;
77206;SDS011;66190;50.708;7.906;2024-02-21T05:55:30;12.27;;;3.33;;
77206;SDS011;66190;50.708;7.906;2024-02-21T05:57:55;9.43;;;2.97;;
77206;SDS011;66190;50.708;7.906;2024-02-21T06:00:21;9.67;;;3.13;;
77206;SDS011;66190;50.708;7.906;2024-02-21T06:02:46;11.20;;;3.85;;
77206;SDS011;66190;50.708;7.906;2024-02-21T06:05:12;14.70;;;3.87;;
77206;SDS011;66190;50.708;7.906;2024-02-21T06:07:38;12.70;;;3.73;;
77206;SDS011;66190;50.708;7.906;2024-02-21T06:10:03;13.45;;;3.80;;
77206;SDS011;66190;50.708;7.906;2024-02-21T06:12:29;13.17;;;4.20;;
77206;SDS011;66190;50.708;7.906;2024-02-21T06:14:54;14.20;;;3.53;;
77206;SDS011;66190;50.708;7.906;2024-02-21T06:17:20;12.93;;;3.78;;
77206;SDS011;66190;50.708;7.906;2024-02-21T06:19:45;13.03;;;3.50;;
77206;SDS011;66190;50.708;7.906;2024-02-21T06:22:11;14.53;;;4.00;;
77206;SDS011;66190;50.708;7.906;2024-02-21T06:24:36;13.15;;;3.58;;
77206;SDS011;66190;50.708;7.906;2024-02-21T06:27:05;13.57;;;3.83;;
77206;SDS011;66190;50.708;7.906;2024-02-21T06:29:34;13.65;;;3.38;;
77206;SDS011;66190;50.708;7.906;2024-02-21T06:32:00;13.13;;;3.93;;
77206;SDS011;66190;50.708;7.906;2024-02-21T06:34:26;16.33;;;4.78;;
77206;SDS011;66190;50.708;7.906;2024-02-21T06:36:51;12.83;;;4.60;;
77206;SDS011;66190;50.708;7.906;2024-02-21T06:39:17;12.55;;;3.85;;
77206;SDS011;66190;50.708;7.906;2024-02-21T06:41:42;17.60;;;5.27;;
77206;SDS011;66190;50.708;7.906;2024-02-21T06:44:08;14.53;;;4.50;;
77206;SDS011;66190;50.708;7.906;2024-02-21T06:46:33;18.98;;;6.15;;
77206;SDS011;66190;50.708;7.906;2024-02-21T06:49:00;15.97;;;4.37;;
77206;SDS011;66190;50.708;7.906;2024-02-21T06:51:26;12.48;;;4.15;;
77206;SDS011;66190;50.708;7.906;2024-02-21T06:53:52;14.55;;;4.03;;
77206;SDS011;66190;50.708;7.906;2024-02-21T06:56:18;14.85;;;3.55;;
77206;SDS011;66190;50.708;7.906;2024-02-21T06:58:44;9.55;;;3.05;;
77206;SDS011;66190;50.708;7.906;2024-02-21T07:01:09;10.90;;;4.07;;
77206;SDS011;66190;50.708;7.906;2024-02-21T07:03:35;11.93;;;3.47;;
77206;SDS011;66190;50.708;7.906;2024-02-21T07:06:00;11.65;;;4.05;;
77206;SDS011;66190;50.708;7.906;2024-02-21T07:08:26;14.57;;;4.50;;
77206;SDS011;66190;50.708;7.906;2024-02-21T07:10:52;14.75;;;3.30;;
77206;SDS011;66190;50.708;7.906;2024-02-21T07:13:17;12.97;;;3.33;;
77206;SDS011;66190;50.708;7.906;2024-02-21T07:15:43;13.13;;;3.23;;
77206;SDS011;66190;50.708;7.906;2024-02-21T07:18:08;14.67;;;4.73;;
77206;SDS011;66190;50.708;7.906;2024-02-21T07:20:33;11.50;;;4.40;;
77206;SDS011;66190;50.708;7.906;2024-02-21T07:23:01;12.27;;;3.38;;
77206;SDS011;66190;50.708;7.906;2024-02-21T07:25:27;10.77;;;3.55;;
77206;SDS011;66190;50.708;7.906;2024-02-21T07:27:53;14.80;;;4.73;;
77206;SDS011;66190;50.708;7.906;2024-02-21T07:30:18;14.13;;;4.30;;
77206;SDS011;66190;50.708;7.906;2024-02-21T07:32:44;12.73;;;3.58;;
77206;SDS011;66190;50.708;7.906;2024-02-21T07:35:09;17.60;;;5.35;;
77206;SDS011;66190;50.708;7.906;2024-02-21T07:37:37;12.00;;;4.13;;
77206;SDS011;66190;50.708;7.906;2024-02-21T07:40:06;14.73;;;3.60;;
77206;SDS011;66190;50.708;7.906;2024-02-21T07:42:32;10.70;;;3.05;;
77206;SDS011;66190;50.708;7.906;2024-02-21T07:44:58;11.85;;;3.03;;
77206;SDS011;66190;50.708;7.906;2024-02-21T07:47:23;10.70;;;3.28;;
77206;SDS011;66190;50.708;7.906;2024-02-21T07:49:49;10.73;;;3.27;;
77206;SDS011;66190;50.708;7.906;2024-02-21T07:52:14;10.98;;;3.58;;
77206;SDS011;66190;50.708;7.906;2024-02-21T07:54:40;11.47;;;3.93;;
77206;SDS011;66190;50.708;7.906;2024-02-21T07:57:06;12.10;;;3.97;;
77206;SDS011;66190;50.708;7.906;2024-02-21T07:59:32;17.25;;;4.43;;
77206;SDS011;66190;50.708;7.906;2024-02-21T08:01:58;13.88;;;3.63;;
77206;SDS011;66190;50.708;7.906;2024-02-21T08:04:24;9.67;;;3.67;;
77206;SDS011;66190;50.708;7.906;2024-02-21T08:06:53;13.32;;;4.20;;
77206;SDS011;66190;50.708;7.906;2024-02-21T08:09:19;12.73;;;4.20;;
77206;SDS011;66190;50.708;7.906;2024-02-21T08:11:44;14.93;;;4.63;;
77206;SDS011;66190;50.708;7.906;2024-02-21T08:14:09;12.20;;;4.23;;
77206;SDS011;66190;50.708;7.906;2024-02-21T08:16:35;14.93;;;4.13;;
77206;SDS011;66190;50.708;7.906;2024-02-21T08:19:00;11.40;;;3.67;;
77206;SDS011;66190;50.708;7.906;2024-02-21T08:21:28;13.10;;;3.93;;
77206;SDS011;66190;50.708;7.906;2024-02-21T08:23:53;13.73;;;3.70;;
77206;SDS011;66190;50.708;7.906;2024-02-21T08:26:19;9.47;;;3.60;;
77206;SDS011;66190;50.708;7.906;2024-02-21T08:28:45;9.60;;;4.20;;
77206;SDS011;66190;50.708;7.906;2024-02-21T08:31:10;10.77;;;3.67;;
77206;SDS011;66190;50.708;7.906;2024-02-21T08:33:36;13.67;;;4.20;;
77206;SDS011;66190;50.708;7.906;2024-02-21T08:36:01;12.77;;;3.63;;
77206;SDS011;66190;50.708;7.906;2024-02-21T08:38:26;12.20;;;4.27;;
77206;SDS011;66190;50.708;7.906;2024-02-21T08:40:52;10.97;;;3.63;;
77206;SDS011;66190;50.708;7.906;2024-02-21T08:43:17;9.70;;;3.23;;
77206;SDS011;66190;50.708;7.906;2024-02-21T08:45:42;11.13;;;3.28;;
77206;SDS011;66190;50.708;7.906;2024-02-21T08:48:08;11.20;;;3.50;;
77206;SDS011;66190;50.708;7.906;2024-02-21T08:50:33;12.00;;;3.43;;
77206;SDS011;66190;50.708;7.906;2024-02-21T08:52:59;11.15;;;4.07;;
77206;SDS011;66190;50.708;7.906;2024-02-21T08:55:25;11.63;;;3.63;;
77206;SDS011;66190;50.708;7.906;2024-02-21T08:57:50;10.52;;;3.40;;
77206;SDS011;66190;50.708;7.906;2024-02-21T09:00:16;9.87;;;3.00;;
77206;SDS011;66190;50.708;7.906;2024-02-21T09:02:42;15.67;;;5.03;;
77206;SDS011;66190;50.708;7.906;2024-02-21T09:05:10;12.88;;;3.53;;
77206;SDS011;66190;50.708;7.906;2024-02-21T09:07:36;11.13;;;3.20;;
77206;SDS011;66190;50.708;7.906;2024-02-21T09:10:02;11.90;;;3.58;;
77206;SDS011;66190;50.708;7.906;2024-02-21T09:12:28;13.70;;;3.73;;
77206;SDS011;66190;50.708;7.906;2024-02-21T09:14:54;11.73;;;3.28;;
77206;SDS011;66190;50.708;7.906;2024-02-21T09:17:19;17.87;;;4.87;;
77206;SDS011;66190;50.708;7.906;2024-02-21T09:19:46;15.18;;;5.63;;
77206;SDS011;66190;50.708;7.906;2024-02-21T09:22:12;16.02;;;5.10;;
77206;SDS011;66190;50.708;7.906;2024-02-21T09:24:38;15.80;;;3.90;;
77206;SDS011;66190;50.708;7.906;2024-02-21T09:27:04;12.43;;;4.15;;
77206;SDS011;66190;50.708;7.906;2024-02-21T09:29:31;17.73;;;6.43;;
77206;SDS011;66190;50.708;7.906;2024-02-21T09:31:58;20.80;;;6.32;;
77206;SDS011;66190;50.708;7.906;2024-02-21T09:34:24;14.38;;;5.78;;
77206;SDS011;66190;50.708;7.906;2024-02-21T09:36:49;19.83;;;7.77;;
77206;SDS011;66190;50.708;7.906;2024-02-21T09:39:14;16.02;;;5.47;;
77206;SDS011;66190;50.708;7.906;2024-02-21T09:41:45;25.35;;;8.52;;
77206;SDS011;66190;50.708;7.906;2024-02-21T09:44:17;17.05;;;5.80;;
77206;SDS011;66190;50.708;7.906;2024-02-21T09:49:32;15.23;;;5.22;;
77206;SDS011;66190;50.708;7.906;2024-02-21T09:52:00;15.00;;;4.73;;
77206;SDS011;66190;50.708;7.906;2024-02-21T09:54:28;18.90;;;5.93;;
77206;SDS011;66190;50.708;7.906;2024-02-21T09:56:54;12.40;;;3.60;;
77206;SDS011;66190;50.708;7.906;2024-02-21T09:59:19;8.80;;;3.50;;
77206;SDS011;66190;50.708;7.906;2024-02-21T10:01:46;9.65;;;3.30;;
77206;SDS011;66190;50.708;7.906;2024-02-21T10:04:15;15.40;;;5.05;;
77206;SDS011;66190;50.708;7.906;2024-02-21T10:06:40;9.60;;;2.83;;
77206;SDS011;66190;50.708;7.906;2024-02-21T10:09:06;12.40;;;4.18;;
77206;SDS011;66190;50.708;7.906;2024-02-21T10:11:32;11.23;;;3.80;;
77206;SDS011;66190;50.708;7.906;2024-02-21T10:14:07;9.98;;;3.72;;
77206;SDS011;66190;50.708;7.906;2024-02-21T10:16:33;13.30;;;3.83;;
77206;SDS011;66190;50.708;7.906;2024-02-21T10:18:59;14.88;;;4.20;;
77206;SDS011;66190;50.708;7.906;2024-02-21T10:21:24;11.43;;;3.40;;
77206;SDS011;66190;50.708;7.906;2024-02-21T10:23:50;9.80;;;3.20;;
77206;SDS011;66190;50.708;7.906;2024-02-21T10:26:17;12.97;;;3.67;;
77206;SDS011;66190;50.708;7.906;2024-02-21T10:28:44;14.00;;;3.00;;
77206;SDS011;66190;50.708;7.906;2024-02-21T10:31:20;8.98;;;3.10;;
77206;SDS011;66190;50.708;7.906;2024-02-21T10:33:53;12.20;;;3.35;;
77206;SDS011;66190;50.708;7.906;2024-02-21T10:36:20;9.73;;;2.85;;
77206;SDS011;66190;50.708;7.906;2024-02-21T10:38:45;11.60;;;2.93;;
77206;SDS011;66190;50.708;7.906;2024-02-21T10:41:11;9.90;;;3.47;;
77206;SDS011;66190;50.708;7.906;2024-02-21T10:43:40;11.05;;;3.50;;
77206;SDS011;66190;50.708;7.906;2024-02-21T10:46:09;11.90;;;3.47;;
77206;SDS011;66190;50.708;7.906;2024-02-21T10:48:45;9.57;;;3.55;;
77206;SDS011;66190;50.708;7.906;2024-02-21T10:51:15;10.03;;;3.67;;
77206;SDS011;66190;50.708;7.906;2024-02-21T10:56:55;8.10;;;2.40;;
77206;SDS011;66190;50.708;7.906;2024-02-21T10:59:23;9.55;;;2.88;;
77206;SDS011;66190;50.708;7.906;2024-02-21T11:01:51;10.93;;;3.67;;
77206;SDS011;66190;50.708;7.906;2024-02-21T11:04:17;9.13;;;3.03;;
77206;SDS011;66190;50.708;7.906;2024-02-21T11:06:43;9.73;;;2.88;;
77206;SDS011;66190;50.708;7.906;2024-02-21T11:09:10;9.90;;;3.05;;
77206;SDS011;66190;50.708;7.906;2024-02-21T11:11:39;9.57;;;3.10;;
77206;SDS011;66190;50.708;7.906;2024-02-21T11:14:06;10.90;;;2.83;;
77206;SDS011;66190;50.708;7.906;2024-02-21T11:16:51;8.38;;;2.72;;
77206;SDS011;66190;50.708;7.906;2024-02-21T11:19:21;9.57;;;2.80;;
77206;SDS011;66190;50.708;7.906;2024-02-21T11:21:49;11.43;;;3.55;;
77206;SDS011;66190;50.708;7.906;2024-02-21T11:24:35;7.65;;;3.05;;
77206;SDS011;66190;50.708;7.906;2024-02-21T11:27:09;9.27;;;2.75;;
77206;SDS011;66190;50.708;7.906;2024-02-21T11:29:43;11.63;;;2.90;;
77206;SDS011;66190;50.708;7.906;2024-02-21T11:32:14;10.10;;;2.83;;
77206;SDS011;66190;50.708;7.906;2024-02-21T11:34:40;8.60;;;2.80;;
77206;SDS011;66190;50.708;7.906;2024-02-21T11:37:15;10.63;;;2.70;;
77206;SDS011;66190;50.708;7.906;2024-02-21T11:39:43;10.17;;;2.57;;
77206;SDS011;66190;50.708;7.906;2024-02-21T11:42:09;9.63;;;2.50;;
77206;SDS011;66190;50.708;7.906;2024-02-21T11:44:38;10.07;;;2.80;;
77206;SDS011;66190;50.708;7.906;2024-02-21T11:47:04;8.13;;;2.28;;
77206;SDS011;66190;50.708;7.906;2024-02-21T11:49:30;8.57;;;2.40;;
77206;SDS011;66190;50.708;7.906;2024-02-21T11:51:59;8.13;;;2.40;;
77206;SDS011;66190;50.708;7.906;2024-02-21T11:54:31;8.85;;;2.60;;
77206;SDS011;66190;50.708;7.906;2024-02-21T11:56:57;8.38;;;2.30;;
77206;SDS011;66190;50.708;7.906;2024-02-21T11:59:22;13.93;;;2.50;;
77206;SDS011;66190;50.708;7.906;2024-02-21T12:01:48;11.07;;;3.37;;
77206;SDS011;66190;50.708;7.906;2024-02-21T12:04:15;8.50;;;2.83;;
77206;SDS011;66190;50.708;7.906;2024-02-21T12:06:42;6.57;;;1.90;;
77206;SDS011;66190;50.708;7.906;2024-02-21T12:09:08;7.53;;;2.30;;
77206;SDS011;66190;50.708;7.906;2024-02-21T12:11:36;10.88;;;2.50;;
77206;SDS011;66190;50.708;7.906;2024-02-21T12:14:02;11.83;;;2.40;;
77206;SDS011;66190;50.708;7.906;2024-02-21T12:16:30;11.25;;;2.35;;
77206;SDS011;66190;50.708;7.906;2024-02-21T12:18:57;8.83;;;2.17;;
77206;SDS011;66190;50.708;7.906;2024-02-21T12:21:24;9.10;;;2.15;;
77206;SDS011;66190;50.708;7.906;2024-02-21T12:23:55;8.00;;;2.00;;
77206;SDS011;66190;50.708;7.906;2024-02-21T12:26:21;8.40;;;1.92;;
77206;SDS011;66190;50.708;7.906;2024-02-21T12:28:47;11.40;;;2.28;;
77206;SDS011;66190;50.708;7.906;2024-02-21T12:31:12;8.27;;;2.00;;
77206;SDS011;66190;50.708;7.906;2024-02-21T12:33:38;15.10;;;2.30;;
77206;SDS011;66190;50.708;7.906;2024-02-21T12:36:04;7.47;;;1.88;;
77206;SDS011;66190;50.708;7.906;2024-02-21T12:38:30;9.30;;;2.10;;
77206;SDS011;66190;50.708;7.906;2024-02-21T12:40:55;10.90;;;2.83;;
77206;SDS011;66190;50.708;7.906;2024-02-21T12:43:25;13.60;;;3.93;;
77206;SDS011;66190;50.708;7.906;2024-02-21T12:45:51;7.97;;;1.90;;
77206;SDS011;66190;50.708;7.906;2024-02-21T12:48:16;9.53;;;2.10;;
77206;SDS011;66190;50.708;7.906;2024-02-21T12:50:51;8.77;;;2.90;;
77206;SDS011;66190;50.708;7.906;2024-02-21T12:53:19;10.23;;;2.80;;
77206;SDS011;66190;50.708;7.906;2024-02-21T12:55:49;8.90;;;2.38;;
77206;SDS011;66190;50.708;7.906;2024-02-21T12:58:15;9.13;;;2.70;;
77206;SDS011;66190;50.708;7.906;2024-02-21T13:00:41;9.73;;;2.93;;
77206;SDS011;66190;50.708;7.906;2024-02-21T13:03:07;8.05;;;2.20;;
77206;SDS011;66190;50.708;7.906;2024-02-21T13:05:35;11.02;;;2.10;;
77206;SDS011;66190;50.708;7.906;2024-02-21T13:08:01;7.03;;;1.90;;
77206;SDS011;66190;50.708;7.906;2024-02-21T13:10:26;5.13;;;1.30;;
77206;SDS011;66190;50.708;7.906;2024-02-21T13:12:52;9.07;;;1.97;;
77206;SDS011;66190;50.708;7.906;2024-02-21T13:15:17;12.07;;;2.50;;
77206;SDS011;66190;50.708;7.906;2024-02-21T13:17:43;6.50;;;1.70;;
77206;SDS011;66190;50.708;7.906;2024-02-21T13:20:09;7.57;;;1.75;;
77206;SDS011;66190;50.708;7.906;2024-02-21T13:22:36;9.98;;;2.08;;
77206;SDS011;66190;50.708;7.906;2024-02-21T13:25:01;9.30;;;2.57;;
77206;SDS011;66190;50.708;7.906;2024-02-21T13:27:27;8.57;;;1.88;;
77206;SDS011;66190;50.708;7.906;2024-02-21T13:29:52;11.20;;;2.83;;
77206;SDS011;66190;50.708;7.906;2024-02-21T13:32:18;9.37;;;2.40;;
77206;SDS011;66190;50.708;7.906;2024-02-21T13:34:44;7.95;;;1.98;;
77206;SDS011;66190;50.708;7.906;2024-02-21T13:37:09;8.40;;;2.37;;
77206;SDS011;66190;50.708;7.906;2024-02-21T13:39:35;6.10;;;1.50;;
77206;SDS011;66190;50.708;7.906;2024-02-21T13:42:02;11.53;;;2.47;;
77206;SDS011;66190;50.708;7.906;2024-02-21T13:44:30;9.20;;;2.15;;
77206;SDS011;66190;50.708;7.906;2024-02-21T13:46:56;7.40;;;1.67;;
77206;SDS011;66190;50.708;7.906;2024-02-21T13:49:21;6.20;;;1.37;;
77206;SDS011;66190;50.708;7.906;2024-02-21T13:51:47;7.27;;;1.30;;
77206;SDS011;66190;50.708;7.906;2024-02-21T13:54:13;6.60;;;1.30;;
77206;SDS011;66190;50.708;7.906;2024-02-21T13:56:42;7.10;;;1.52;;
77206;SDS011;66190;50.708;7.906;2024-02-21T13:59:08;6.07;;;1.40;;
77206;SDS011;66190;50.708;7.906;2024-02-21T14:01:33;7.57;;;1.73;;
77206;SDS011;66190;50.708;7.906;2024-02-21T14:03:59;5.50;;;1.10;;
77206;SDS011;66190;50.708;7.906;2024-02-21T14:06:25;7.10;;;1.50;;
77206;SDS011;66190;50.708;7.906;2024-02-21T14:08:50;7.20;;;1.80;;
77206;SDS011;66190;50.708;7.906;2024-02-21T14:11:16;7.20;;;1.37;;
77206;SDS011;66190;50.708;7.906;2024-02-21T14:13:41;7.40;;;1.67;;
77206;SDS011;66190;50.708;7.906;2024-02-21T14:16:10;8.43;;;2.00;;
77206;SDS011;66190;50.708;7.906;2024-02-21T14:18:39;9.02;;;1.70;;
77206;SDS011;66190;50.708;7.906;2024-02-21T14:21:08;8.03;;;1.63;;
77206;SDS011;66190;50.708;7.906;2024-02-21T14:23:37;6.32;;;1.45;;
77206;SDS011;66190;50.708;7.906;2024-02-21T14:26:06;7.32;;;1.67;;
77206;SDS011;66190;50.708;7.906;2024-02-21T14:28:32;9.20;;;2.08;;
77206;SDS011;66190;50.708;7.906;2024-02-21T14:30:59;8.48;;;1.52;;
77206;SDS011;66190;50.708;7.906;2024-02-21T14:33:25;6.22;;;1.48;;
77206;SDS011;66190;50.708;7.906;2024-02-21T14:35:55;6.10;;;1.15;;
77206;SDS011;66190;50.708;7.906;2024-02-21T14:38:21;6.87;;;1.90;;
77206;SDS011;66190;50.708;7.906;2024-02-21T14:40:47;7.85;;;1.75;;